Time;durP1;ratioP1;P1;durP2;ratioP2;P2;SDS_P1;SDS_P2;PMS_P1;PMS_P2;Temp;Humidity;BMP_temperature;BMP_pressure;BME280_temperature;BME280_humidity;BME280_pressure;Samples;Min_cycle;Max_cycle;Signal;HPM_P1;HPM_P2
2023/03/03 00:02:29;;;;;;;26.05;21.30;;;;;;;1.00;64.43;98457.34;5053584;28;20055;-79
2023/03/03 00:04:55;;;;;;;26.10;20.90;;;;;;;1.12;65.12;98455.88;5054827;28;20456;-79
2023/03/03 00:07:36;;;;;;;26.00;20.48;;;;;;;1.34;63.17;98447.09;5070160;28;20152;-79
2023/03/03 00:10:15;;;;;;;25.83;20.10;;;;;;;1.08;63.58;98425.44;5057187;28;20040;-79
2023/03/03 00:12:48;;;;;;;26.77;20.70;;;;;;;1.32;63.31;98465.03;5072398;28;20044;-79
2023/03/03 00:15:19;;;;;;;29.67;22.30;;;;;;;1.19;65.62;98475.38;5072661;28;20128;-78
2023/03/03 00:17:45;;;;;;;30.13;22.67;;;;;;;1.26;65.89;98476.31;5036766;28;20039;-79
2023/03/03 00:20:29;;;;;;;29.15;22.77;;;;;;;1.21;66.06;98472.56;5057980;28;20029;-79
2023/03/03 00:22:56;;;;;;;28.10;21.80;;;;;;;1.25;64.73;98469.38;5053566;28;20036;-79
2023/03/03 00:25:30;;;;;;;32.90;22.95;;;;;;;0.99;65.50;98473.41;5032833;28;20029;-78
2023/03/03 00:28:01;;;;;;;29.60;22.98;;;;;;;1.17;65.05;98476.56;5073737;28;20435;-79
2023/03/03 00:30:27;;;;;;;29.55;23.15;;;;;;;0.90;66.42;98475.28;5040245;28;20032;-79
2023/03/03 00:32:54;;;;;;;29.67;22.55;;;;;;;1.02;66.03;98484.50;5036795;28;20075;-78
2023/03/03 00:35:34;;;;;;;27.10;22.10;;;;;;;1.13;65.30;98481.41;5056452;28;20060;-79
2023/03/03 00:38:09;;;;;;;29.23;23.13;;;;;;;1.17;65.71;98482.69;5069259;28;20032;-79
2023/03/03 00:40:36;;;;;;;27.30;22.27;;;;;;;1.37;64.27;98481.22;5070033;28;20123;-78
2023/03/03 00:43:17;;;;;;;28.80;22.65;;;;;;;1.21;64.84;98484.00;5067677;28;20020;-79
2023/03/03 00:45:44;;;;;;;30.50;22.60;;;;;;;1.24;64.63;98478.34;5040982;28;20101;-79
2023/03/03 00:48:19;;;;;;;29.13;23.30;;;;;;;1.29;64.63;98485.75;5041932;28;20017;-78
2023/03/03 00:50:44;;;;;;;32.10;23.77;;;;;;;1.17;65.68;98492.47;5041136;28;20055;-78
2023/03/03 00:53:13;;;;;;;29.73;22.77;;;;;;;0.89;66.61;98483.44;5085563;28;20468;-78
2023/03/03 00:55:39;;;;;;;30.73;23.42;;;;;;;0.82;66.92;98488.59;5039165;28;20075;-78
2023/03/03 00:58:04;;;;;;;29.70;23.10;;;;;;;0.99;66.83;98479.53;5035658;28;20040;-77
2023/03/03 01:00:35;;;;;;;29.20;22.88;;;;;;;0.79;66.78;98481.00;5032313;28;20040;-78
2023/03/03 01:03:05;;;;;;;30.45;23.83;;;;;;;0.81;66.94;98479.00;5043005;28;20029;-76
2023/03/03 01:05:30;;;;;;;30.25;23.02;;;;;;;0.78;67.24;98482.00;5065236;28;20082;-77
2023/03/03 01:07:55;;;;;;;29.77;23.30;;;;;;;0.74;67.93;98480.72;5029594;28;20115;-77
2023/03/03 01:10:21;;;;;;;32.58;24.05;;;;;;;0.97;67.16;98486.84;5048629;28;20125;-77
2023/03/03 01:12:46;;;;;;;33.05;24.35;;;;;;;0.75;67.74;98487.66;5059760;28;20049;-76
2023/03/03 01:15:13;;;;;;;31.67;24.85;;;;;;;0.66;68.33;98486.03;5037845;28;20638;-77
2023/03/03 01:17:38;;;;;;;35.08;27.40;;;;;;;0.73;69.04;98488.81;5080609;28;20145;-76
2023/03/03 01:20:06;;;;;;;33.85;26.17;;;;;;;0.62;69.37;98482.94;5069707;28;20569;-77
2023/03/03 01:22:32;;;;;;;31.95;25.98;;;;;;;0.76;69.07;98478.72;5055534;28;20024;-77
2023/03/03 01:24:57;;;;;;;32.03;25.75;;;;;;;0.77;69.05;98464.44;5067110;28;20119;-76
2023/03/03 01:27:23;;;;;;;32.08;25.52;;;;;;;0.71;68.83;98465.16;5053591;28;20029;-76
2023/03/03 01:29:48;;;;;;;33.63;27.52;;;;;;;0.42;69.55;98475.59;5034143;28;20044;-76
2023/03/03 01:32:13;;;;;;;32.40;25.55;;;;;;;0.34;69.39;98473.81;5058824;28;20112;-77
2023/03/03 01:34:39;;;;;;;36.47;30.17;;;;;;;0.26;71.35;98470.34;5068384;28;20376;-77
2023/03/03 01:37:04;;;;;;;39.58;31.00;;;;;;;0.00;72.52;98476.75;5033686;28;20078;-77
2023/03/03 01:39:29;;;;;;;41.50;31.33;;;;;;;0.03;71.77;98459.72;5052032;28;20119;-78
2023/03/03 01:41:55;;;;;;;38.42;32.47;;;;;;;0.06;72.31;98458.53;5064901;28;20069;-77
2023/03/03 01:44:20;;;;;;;40.03;32.25;;;;;;;0.11;72.09;98450.91;5050614;28;20033;-77
2023/03/03 01:47:04;;;;;;;39.40;32.60;;;;;;;0.09;72.49;98459.03;5028363;28;20067;-77
2023/03/03 01:49:35;;;;;;;41.67;33.85;;;;;;;-0.18;73.98;98455.00;5021033;28;20131;-77
2023/03/03 01:52:08;;;;;;;42.08;36.72;;;;;;;-0.01;73.47;98467.19;5045785;28;20036;-76
2023/03/03 01:54:39;;;;;;;46.28;37.92;;;;;;;0.15;73.58;98452.22;5049866;28;20066;-76
2023/03/03 01:57:06;;;;;;;41.35;34.42;;;;;;;-0.12;73.03;98456.94;5036175;28;20054;-77
2023/03/03 01:59:37;;;;;;;45.55;40.58;;;;;;;-0.12;74.66;98472.81;5062899;28;20020;-76
2023/03/03 02:02:03;;;;;;;50.00;40.38;;;;;;;0.03;74.99;98466.81;5066656;28;20064;-77
2023/03/03 02:04:28;;;;;;;52.25;44.13;;;;;;;-0.03;74.80;98471.81;5026904;28;20020;-76
2023/03/03 02:07:00;;;;;;;53.67;46.08;;;;;;;-0.10;75.65;98476.16;5053215;28;20102;-77
2023/03/03 02:09:44;;;;;;;52.85;44.67;;;;;;;-0.06;75.03;98474.81;5033241;28;20250;-77
2023/03/03 02:12:11;;;;;;;48.88;43.05;;;;;;;0.06;73.42;98469.13;5063421;28;20110;-77
2023/03/03 02:14:37;;;;;;;50.47;43.25;;;;;;;-0.11;73.93;98469.19;5033041;28;20128;-77
2023/03/03 02:17:02;;;;;;;49.92;43.25;;;;;;;-0.10;74.74;98465.56;5033129;28;20147;-77
2023/03/03 02:19:36;;;;;;;49.42;43.95;;;;;;;-0.01;74.45;98464.53;5042991;28;20024;-75
2023/03/03 02:22:02;;;;;;;54.30;45.83;;;;;;;0.02;73.86;98465.19;5058114;28;20032;-75
2023/03/03 02:24:50;;;;;;;49.08;43.85;;;;;;;0.03;73.73;98464.16;5034573;28;20017;-75
2023/03/03 02:27:16;;;;;;;48.85;43.00;;;;;;;-0.18;73.65;98462.94;5049716;28;20040;-77
2023/03/03 02:29:42;;;;;;;48.55;40.45;;;;;;;-0.15;72.80;98462.59;5046829;28;20052;-76
2023/03/03 02:32:08;;;;;;;48.22;42.00;;;;;;;-0.36;73.54;98459.69;5024561;28;20520;-77
2023/03/03 02:34:48;;;;;;;46.00;40.42;;;;;;;-0.76;74.21;98457.09;5032952;28;20025;-75
2023/03/03 02:37:14;;;;;;;51.83;43.63;;;;;;;-0.42;74.16;98457.69;5046346;28;20056;-76
2023/03/03 02:39:39;;;;;;;52.53;44.47;;;;;;;-0.55;74.26;98465.34;5036194;28;20500;-76
2023/03/03 02:42:09;;;;;;;47.33;41.58;;;;;;;-0.76;74.04;98465.03;5033091;28;20405;-76
2023/03/03 02:44:40;;;;;;;57.85;50.53;;;;;;;-0.68;76.32;98465.03;5057362;28;20032;-77
2023/03/03 02:47:05;;;;;;;61.00;52.20;;;;;;;-0.55;75.39;98470.63;5050797;28;20033;-76
2023/03/03 02:49:33;;;;;;;55.53;48.38;;;;;;;-0.38;75.58;98466.13;5032962;28;20029;-76
2023/03/03 02:51:59;;;;;;;54.17;46.88;;;;;;;-0.32;74.31;98460.16;5046381;28;20039;-75
2023/03/03 02:54:29;;;;;;;53.45;46.25;;;;;;;-0.44;74.15;98466.78;5024292;28;20021;-76
2023/03/03 02:56:54;;;;;;;54.83;47.05;;;;;;;-0.32;74.80;98463.63;5039398;28;20060;-75
2023/03/03 02:59:20;;;;;;;56.85;48.53;;;;;;;-0.33;74.51;98464.63;5061265;28;20507;-76
2023/03/03 03:01:47;;;;;;;59.65;51.22;;;;;;;-0.37;75.47;98463.31;5046341;28;20044;-76
2023/03/03 03:04:22;;;;;;;59.08;51.30;;;;;;;-0.54;75.84;98467.00;5038542;28;20056;-76
2023/03/03 03:06:50;;;;;;;58.70;51.63;;;;;;;-0.58;76.65;98470.94;5059930;28;20032;-76
2023/03/03 03:09:18;;;;;;;60.83;53.30;;;;;;;-0.60;77.56;98475.59;5053071;28;20082;-76
2023/03/03 03:11:45;;;;;;;63.45;53.80;;;;;;;-0.32;76.43;98476.03;5066629;28;20037;-77
2023/03/03 03:14:13;;;;;;;64.25;55.13;;;;;;;-0.37;75.94;98463.31;5046837;28;20438;-76
2023/03/03 03:16:39;;;;;;;58.92;51.05;;;;;;;-0.57;76.12;98475.25;5035961;28;20032;-76
2023/03/03 03:19:04;;;;;;;61.83;53.85;;;;;;;-0.32;75.76;98476.84;5060243;28;20033;-76
2023/03/03 03:21:31;;;;;;;61.28;52.97;;;;;;;-0.36;75.48;98464.97;5056901;28;20552;-75
2023/03/03 03:23:57;;;;;;;63.22;53.80;;;;;;;-0.38;75.53;98464.31;5036015;28;20025;-75
2023/03/03 03:26:24;;;;;;;62.50;53.33;;;;;;;-0.53;75.47;98463.34;5052890;28;20507;-76
2023/03/03 03:28:51;;;;;;;64.63;55.13;;;;;;;-0.65;76.37;98459.38;5064060;28;20028;-77
2023/03/03 03:31:18;;;;;;;63.10;55.95;;;;;;;-0.60;76.15;98451.78;5051555;28;20040;-76
2023/03/03 03:33:44;;;;;;;64.80;56.47;;;;;;;-0.57;76.13;98461.19;5027267;28;20107;-78
2023/03/03 03:36:11;;;;;;;65.05;55.83;;;;;;;-0.64;76.10;98465.50;5052570;28;20039;-78
2023/03/03 03:38:36;;;;;;;63.28;54.97;;;;;;;-0.82;76.27;98465.69;5072751;28;20028;-78
2023/03/03 03:41:04;;;;;;;68.93;61.53;;;;;;;-1.19;77.92;98475.94;5051515;28;20041;-75
2023/03/03 03:43:30;;;;;;;65.43;58.45;;;;;;;-1.02;77.43;98467.84;5050831;28;20540;-75
2023/03/03 03:45:57;;;;;;;64.72;57.78;;;;;;;-1.07;77.72;98475.44;5062405;28;20031;-75
2023/03/03 03:48:24;;;;;;;62.47;55.25;;;;;;;-1.06;76.31;98465.69;5064101;28;20025;-76
2023/03/03 03:50:50;;;;;;;68.22;59.30;;;;;;;-0.99;76.66;98472.81;5055089;28;20032;-76
2023/03/03 03:53:16;;;;;;;67.00;58.70;;;;;;;-1.10;77.07;98480.22;5054908;28;20021;-76
2023/03/03 03:55:43;;;;;;;68.72;60.42;;;;;;;-1.07;76.66;98485.16;5068608;28;20036;-75
2023/03/03 03:58:12;;;;;;;69.60;61.70;;;;;;;-1.08;77.59;98479.06;5061526;28;20028;-76
2023/03/03 04:00:40;;;;;;;71.38;63.85;;;;;;;-1.15;77.75;98480.72;5085355;28;20052;-77
2023/03/03 04:03:06;;;;;;;69.32;61.88;;;;;;;-1.00;77.12;98484.34;5042621;28;20025;-77
2023/03/03 04:05:32;;;;;;;69.90;60.95;;;;;;;-1.06;77.75;98482.38;5051226;28;20039;-77
2023/03/03 04:07:57;;;;;;;67.90;60.53;;;;;;;-1.04;78.39;98484.84;5035128;28;20438;-77
2023/03/03 04:10:23;;;;;;;70.65;62.95;;;;;;;-0.72;77.60;98466.34;5048949;28;20032;-76
2023/03/03 04:12:48;;;;;;;73.50;62.28;;;;;;;-0.86;78.13;98474.94;5061208;28;20091;-76
2023/03/03 04:15:15;;;;;;;69.13;59.58;;;;;;;-0.86;77.30;98490.78;5065883;28;20815;-76
2023/03/03 04:17:41;;;;;;;71.57;62.00;;;;;;;-0.91;76.88;98495.78;5060637;28;20039;-75
2023/03/03 04:20:07;;;;;;;70.80;62.10;;;;;;;-0.88;78.54;98482.22;5055823;28;20098;-75
2023/03/03 04:22:34;;;;;;;72.53;64.05;;;;;;;-0.91;78.39;98490.50;5052019;28;20024;-75
2023/03/03 04:25:04;;;;;;;69.20;60.50;;;;;;;-0.79;78.94;98505.00;5076964;28;20035;-75
2023/03/03 04:27:35;;;;;;;74.05;64.30;;;;;;;-0.56;79.35;98495.41;5074923;28;20032;-76
2023/03/03 04:30:01;;;;;;;75.00;66.72;;;;;;;-0.49;78.31;98496.38;5051899;28;20393;-75
2023/03/03 04:32:27;;;;;;;74.80;66.53;;;;;;;-0.47;78.60;98473.28;5052018;28;20087;-76
2023/03/03 04:34:53;;;;;;;73.47;65.07;;;;;;;-0.37;78.18;98495.06;5035044;28;20037;-76
2023/03/03 04:37:19;;;;;;;72.90;62.50;;;;;;;-0.34;76.72;98499.19;5051623;28;20437;-76
2023/03/03 04:39:45;;;;;;;74.47;65.65;;;;;;;-0.47;78.50;98494.44;5035077;28;20450;-75
2023/03/03 04:42:11;;;;;;;73.32;65.38;;;;;;;-0.63;78.60;98491.78;5065285;28;20048;-75
2023/03/03 04:44:36;;;;;;;78.10;67.07;;;;;;;-0.62;78.39;98488.16;5084164;28;20411;-75
2023/03/03 04:47:02;;;;;;;72.57;64.68;;;;;;;-0.76;79.03;98486.19;5041687;28;20082;-75
2023/03/03 04:49:29;;;;;;;75.60;67.40;;;;;;;-0.56;79.22;98489.31;5064387;28;20029;-75
2023/03/03 04:51:56;;;;;;;75.68;67.70;;;;;;;-0.55;79.32;98480.38;5067928;28;20024;-77
2023/03/03 04:54:22;;;;;;;76.38;67.82;;;;;;;-0.65;79.01;98480.53;5034674;28;20629;-77
2023/03/03 04:56:48;;;;;;;74.70;66.55;;;;;;;-0.60;79.85;98483.50;5046335;28;20377;-77
2023/03/03 04:59:14;;;;;;;78.82;69.43;;;;;;;-0.50;79.13;98484.19;5034587;28;20044;-76
2023/03/03 05:01:39;;;;;;;76.63;68.32;;;;;;;-0.46;78.60;98488.13;5045585;28;20111;-76
2023/03/03 05:04:05;;;;;;;77.85;67.00;;;;;;;-0.66;78.54;98489.47;5051078;28;20116;-77
2023/03/03 05:06:30;;;;;;;75.50;67.13;;;;;;;-0.86;79.90;98488.97;5064354;28;20025;-77
2023/03/03 05:08:56;;;;;;;77.35;68.60;;;;;;;-1.00;79.12;98491.44;5058282;28;20734;-77
2023/03/03 05:11:21;;;;;;;79.18;70.65;;;;;;;-0.91;79.18;98490.50;5034275;28;20029;-77
2023/03/03 05:13:46;;;;;;;71.68;63.58;;;;;;;-0.97;78.54;98491.13;5064069;28;20040;-77
2023/03/03 05:16:12;;;;;;;74.82;64.75;;;;;;;-1.13;78.75;98496.41;5078169;28;20027;-75
2023/03/03 05:18:38;;;;;;;79.30;68.15;;;;;;;-1.17;79.57;98500.38;5047724;28;20037;-75
2023/03/03 05:21:03;;;;;;;83.40;74.72;;;;;;;-1.00;80.53;98502.03;5044388;28;20028;-75
2023/03/03 05:23:30;;;;;;;79.57;70.93;;;;;;;-0.94;80.19;98496.09;5077244;28;20159;-76
2023/03/03 05:25:55;;;;;;;85.05;72.47;;;;;;;-0.92;79.25;98496.75;5051782;28;20536;-76
2023/03/03 05:28:21;;;;;;;78.72;70.03;;;;;;;-1.21;79.35;98493.78;5051341;28;20036;-76
2023/03/03 05:30:46;;;;;;;85.93;74.55;;;;;;;-1.07;81.13;98495.75;5060954;28;20077;-76
2023/03/03 05:33:14;;;;;;;79.25;70.75;;;;;;;-1.31;79.17;98501.00;5050358;28;20163;-76
2023/03/03 05:35:40;;;;;;;79.95;71.18;;;;;;;-1.21;80.73;98499.84;5027989;28;20025;-75
2023/03/03 05:38:05;;;;;;;84.88;75.95;;;;;;;-0.85;80.21;98495.94;5063293;28;20078;-75
2023/03/03 05:40:30;;;;;;;84.38;75.03;;;;;;;-1.02;80.02;98504.84;5027566;28;20032;-75
2023/03/03 05:42:56;;;;;;;81.38;72.47;;;;;;;-1.02;79.02;98514.56;5050237;28;20045;-76
2023/03/03 05:45:23;;;;;;;79.90;71.38;;;;;;;-1.18;79.42;98503.97;5050499;28;20056;-75
2023/03/03 05:47:52;;;;;;;83.57;74.50;;;;;;;-1.06;80.09;98518.53;5035404;28;20032;-75
2023/03/03 05:50:19;;;;;;;83.28;74.40;;;;;;;-1.29;80.21;98523.63;5048745;28;20111;-74
2023/03/03 05:52:50;;;;;;;86.50;65.35;;;;;;;-1.06;82.19;98523.81;5084425;28;20032;-74
2023/03/03 05:55:16;;;;;;;89.43;79.68;;;;;;;-0.97;82.72;98536.06;5071908;28;20033;-75
2023/03/03 05:57:42;;;;;;;88.72;79.07;;;;;;;-0.87;81.79;98526.16;5061634;28;20024;-74
2023/03/03 06:00:08;;;;;;;88.93;79.32;;;;;;;-1.00;82.27;98521.34;5058209;28;20067;-75
2023/03/03 06:02:40;;;;;;;90.07;80.40;;;;;;;-0.69;82.51;98524.19;5070358;28;20020;-74
2023/03/03 06:05:07;;;;;;;93.45;83.82;;;;;;;-0.81;80.67;98536.06;5035619;28;20031;-75
2023/03/03 06:07:32;;;;;;;92.03;82.15;;;;;;;-0.71;80.93;98539.38;5044203;28;20028;-74
2023/03/03 06:09:58;;;;;;;87.97;78.90;;;;;;;-0.81;81.91;98541.34;5051713;28;20025;-74
2023/03/03 06:12:23;;;;;;;92.45;82.70;;;;;;;-0.81;82.34;98541.34;5038537;28;20862;-75
2023/03/03 06:14:49;;;;;;;92.90;83.10;;;;;;;-0.69;82.17;98537.41;5062489;28;20032;-75
2023/03/03 06:17:14;;;;;;;93.97;84.35;;;;;;;-0.67;82.10;98540.69;5080276;28;20414;-75
2023/03/03 06:19:40;;;;;;;92.63;83.20;;;;;;;-0.68;81.90;98539.06;5076755;28;20119;-75
2023/03/03 06:22:06;;;;;;;93.15;83.63;;;;;;;-0.71;82.26;98544.69;5069461;28;20047;-75
2023/03/03 06:24:31;;;;;;;92.35;82.97;;;;;;;-0.52;81.73;98549.63;5074346;28;20028;-75
2023/03/03 06:26:57;;;;;;;91.88;81.88;;;;;;;-0.71;82.51;98549.97;5049980;28;20074;-75
2023/03/03 06:29:23;;;;;;;92.40;82.82;;;;;;;-0.72;81.73;98561.50;5047269;28;20400;-76
2023/03/03 06:31:48;;;;;;;92.57;82.65;;;;;;;-0.78;81.79;98554.25;5032986;28;20016;-76
2023/03/03 06:34:13;;;;;;;93.95;83.35;;;;;;;-1.00;83.36;98562.81;5052396;28;20408;-75
2023/03/03 06:36:39;;;;;;;94.45;84.68;;;;;;;-0.77;82.25;98561.22;5050296;28;20061;-76
2023/03/03 06:39:04;;;;;;;93.47;83.88;;;;;;;-0.78;82.52;98564.84;5054432;28;20032;-76
2023/03/03 06:41:29;;;;;;;92.57;83.05;;;;;;;-0.57;82.14;98572.28;5053814;28;20495;-76
2023/03/03 06:43:56;;;;;;;94.43;84.63;;;;;;;-0.52;82.13;98575.25;5048215;28;20040;-76
2023/03/03 06:46:22;;;;;;;92.85;83.22;;;;;;;-0.33;81.32;98575.75;5067307;28;20028;-75
2023/03/03 06:48:47;;;;;;;92.82;82.82;;;;;;;-0.35;81.63;98572.44;5050399;28;20443;-77
2023/03/03 06:51:23;;;;;;;90.25;81.03;;;;;;;-0.24;81.56;98589.78;5044320;28;20119;-76
2023/03/03 06:53:51;;;;;;;92.18;82.60;;;;;;;-0.20;81.63;98601.69;5055122;28;20398;-75
2023/03/03 06:56:17;;;;;;;92.32;82.93;;;;;;;-0.17;81.41;98596.91;5053290;28;20029;-76
2023/03/03 06:58:42;;;;;;;92.05;82.75;;;;;;;-0.13;82.26;98595.56;5067897;28;20040;-76
2023/03/03 07:01:14;;;;;;;92.07;82.88;;;;;;;0.04;81.89;98600.84;5064259;28;20032;-76
2023/03/03 07:03:40;;;;;;;86.50;77.65;;;;;;;0.06;81.37;98596.19;5066397;28;20072;-76
2023/03/03 07:06:16;;;;;;;88.85;79.32;;;;;;;0.13;80.99;98607.78;5046224;28;20060;-76
2023/03/03 07:08:41;;;;;;;;;;;;;;;0.12;81.85;98600.84;5087208;28;20448;-76
2023/03/03 07:11:10;;;;;;;86.03;77.30;;;;;;;0.29;81.63;98605.09;5062261;28;19959;-75
2023/03/03 07:13:46;;;;;;;87.00;77.78;;;;;;;0.43;81.02;98614.97;5034084;28;20477;-76
2023/03/03 07:16:13;;;;;;;85.93;77.22;;;;;;;0.48;80.57;98607.34;5045923;28;20103;-76
2023/03/03 07:18:49;;;;;;;81.20;72.78;;;;;;;0.53;80.82;98621.75;5049959;28;20029;-75
2023/03/03 07:21:23;;;;;;;84.60;75.78;;;;;;;0.59;80.39;98625.53;5073081;28;20028;-75
2023/03/03 07:23:51;;;;;;;78.35;69.93;;;;;;;0.59;80.62;98642.25;5063156;28;20037;-75
2023/03/03 07:26:18;;;;;;;80.03;71.93;;;;;;;0.68;80.86;98645.69;5052372;28;20066;-75
2023/03/03 07:28:51;;;;;;;85.25;76.75;;;;;;;0.71;81.15;98634.75;5062849;28;20036;-75
2023/03/03 07:31:26;;;;;;;80.72;72.32;;;;;;;0.66;81.94;98634.44;5066089;28;20150;-75
2023/03/03 07:33:51;;;;;;;77.20;69.63;;;;;;;0.69;80.85;98642.91;5059912;28;20040;-76
2023/03/03 07:36:29;;;;;;;74.90;67.25;;;;;;;0.78;80.36;98651.63;5037169;28;20040;-75
2023/03/03 07:38:59;;;;;;;74.80;67.25;;;;;;;0.69;79.29;98668.56;5032751;28;20126;-75
2023/03/03 07:41:24;;;;;;;73.63;65.97;;;;;;;0.72;79.91;98662.09;5072669;28;20728;-74
2023/03/03 07:44:00;;;;;;;74.07;66.60;;;;;;;0.72;80.18;98654.97;5039436;28;20074;-75
2023/03/03 07:46:29;;;;;;;70.20;63.05;;;;;;;0.79;79.45;98663.06;5069225;28;20395;-74
2023/03/03 07:48:57;;;;;;;73.43;66.18;;;;;;;0.83;80.15;98670.50;5054794;28;20027;-76
2023/03/03 07:51:48;;;;;;;67.40;60.22;;;;;;;0.81;79.34;98671.66;5064666;28;20023;-75
2023/03/03 07:54:29;;;;;;;67.43;60.63;;;;;;;0.90;79.52;98670.63;5051308;28;20083;-75
2023/03/03 07:57:00;;;;;;;66.03;59.42;;;;;;;1.05;79.16;98674.25;5053245;28;20472;-76
2023/03/03 07:59:25;;;;;;;68.43;61.72;;;;;;;1.04;79.21;98678.72;5052264;28;20035;-75
2023/03/03 08:01:55;;;;;;;67.90;61.17;;;;;;;1.02;78.94;98664.81;5048328;28;20392;-75
2023/03/03 08:04:28;;;;;;;66.53;60.13;;;;;;;1.37;78.69;98674.91;5035359;28;20040;-76
2023/03/03 08:06:59;;;;;;;64.10;57.78;;;;;;;1.22;78.63;98676.63;5058410;28;20384;-75
2023/03/03 08:09:42;;;;;;;65.00;58.53;;;;;;;1.19;78.70;98676.97;5081903;28;20044;-75
2023/03/03 08:12:23;;;;;;;67.03;59.88;;;;;;;1.27;78.24;98676.94;5049450;28;20043;-77
2023/03/03 08:14:50;;;;;;;61.33;55.00;;;;;;;1.37;78.05;98680.22;5031756;28;20032;-76
2023/03/03 08:17:22;;;;;;;60.40;54.50;;;;;;;1.36;77.88;98677.72;5026625;28;20032;-77
2023/03/03 08:19:50;;;;;;;61.55;55.42;;;;;;;1.49;77.95;98674.50;5054790;28;20133;-76
2023/03/03 08:22:18;;;;;;;58.13;52.42;;;;;;;1.65;77.99;98682.34;5051969;28;20051;-76
2023/03/03 08:24:43;;;;;;;58.75;53.05;;;;;;;1.55;78.83;98681.75;5051604;28;20087;-76
2023/03/03 08:27:09;;;;;;;60.65;54.72;;;;;;;1.42;78.37;98683.13;5058860;28;20029;-76
2023/03/03 08:29:34;;;;;;;58.13;52.33;;;;;;;1.48;77.77;98680.78;5055520;28;20036;-77
2023/03/03 08:32:00;;;;;;;56.58;51.22;;;;;;;1.55;77.62;98676.44;5062290;28;20025;-77
2023/03/03 08:34:25;;;;;;;55.35;49.88;;;;;;;1.59;77.67;98677.75;5051702;28;20563;-77
2023/03/03 08:36:51;;;;;;;54.95;49.55;;;;;;;1.62;76.69;98666.78;5051608;28;20484;-76
2023/03/03 08:39:16;;;;;;;57.78;52.03;;;;;;;1.81;77.02;98679.59;5051507;28;20128;-74
2023/03/03 08:41:43;;;;;;;55.92;50.40;;;;;;;1.85;77.44;98667.59;5045167;28;20062;-77
2023/03/03 08:44:09;;;;;;;53.47;48.17;;;;;;;1.92;75.49;98676.50;5057848;28;20058;-75
2023/03/03 08:46:35;;;;;;;52.38;47.17;;;;;;;1.98;76.79;98673.16;5061169;28;20024;-75
2023/03/03 08:49:00;;;;;;;53.70;48.22;;;;;;;1.84;75.86;98677.41;5048181;28;20041;-76
2023/03/03 08:51:25;;;;;;;50.03;44.80;;;;;;;1.93;75.97;98671.03;5061322;28;20032;-77
2023/03/03 08:53:51;;;;;;;45.13;40.63;;;;;;;1.95;76.21;98673.50;5050898;28;20047;-76
2023/03/03 08:56:16;;;;;;;48.78;43.67;;;;;;;2.07;75.23;98661.47;5061254;28;20103;-75
2023/03/03 08:58:46;;;;;;;47.08;42.10;;;;;;;2.05;75.30;98664.28;5050876;28;20056;-77
2023/03/03 09:01:13;;;;;;;47.30;42.22;;;;;;;2.31;73.99;98663.88;5061562;28;20495;-77
2023/03/03 09:03:38;;;;;;;44.47;38.63;;;;;;;2.09;74.80;98665.59;5047435;28;20032;-77
2023/03/03 09:06:03;;;;;;;42.17;37.70;;;;;;;2.27;73.88;98673.22;5050648;28;20037;-76
2023/03/03 09:08:29;;;;;;;42.55;37.92;;;;;;;2.13;73.92;98681.16;5065955;28;20033;-76
2023/03/03 09:10:54;;;;;;;42.13;37.33;;;;;;;2.24;74.55;98678.09;5081197;28;20559;-76
2023/03/03 09:13:20;;;;;;;41.65;37.28;;;;;;;2.26;73.67;98676.06;5057362;28;20031;-77
2023/03/03 09:15:46;;;;;;;40.45;36.05;;;;;;;2.53;73.18;98678.94;5060921;28;20037;-76
2023/03/03 09:18:26;;;;;;;40.95;36.22;;;;;;;2.42;73.14;98666.13;5064015;28;20024;-77
2023/03/03 09:20:52;;;;;;;40.00;33.72;;;;;;;2.54;72.53;98677.97;5044524;28;20412;-77
2023/03/03 09:23:36;;;;;;;37.05;32.45;;;;;;;2.66;71.75;98679.13;5070321;28;20040;-77
2023/03/03 09:26:26;;;;;;;37.50;31.55;;;;;;;2.78;72.10;98672.34;5057192;28;20075;-77
2023/03/03 09:29:12;;;;;;;36.17;32.08;;;;;;;2.82;71.07;98677.31;5034339;28;20562;-76
2023/03/03 09:31:45;;;;;;;37.75;31.65;;;;;;;3.03;70.45;98680.06;5051321;28;20055;-77
2023/03/03 09:34:38;;;;;;;37.15;30.45;;;;;;;3.10;71.18;98680.97;5051718;28;20476;-76
2023/03/03 09:37:32;;;;;;;38.63;31.38;;;;;;;3.03;71.40;98690.72;5050557;28;20029;-76
2023/03/03 09:39:58;;;;;;;38.85;30.23;;;;;;;3.05;70.64;98684.19;5048572;28;20091;-76
2023/03/03 09:42:53;;;;;;;36.60;30.77;;;;;;;3.21;71.75;98678.66;5053176;28;20029;-75
2023/03/03 09:45:24;;;;;;;35.63;29.85;;;;;;;3.18;69.98;98688.84;5069173;28;20036;-76
2023/03/03 09:48:15;;;;;;;35.58;29.55;;;;;;;3.43;70.07;98695.53;5050025;28;20038;-76
2023/03/03 09:50:46;;;;;;;36.53;29.85;;;;;;;3.36;68.95;98686.63;5054790;28;20040;-75
2023/03/03 09:53:22;;;;;;;36.08;29.50;;;;;;;3.54;69.10;98699.53;5060136;28;20039;-75
2023/03/03 09:55:56;;;;;;;34.05;29.13;;;;;;;3.56;70.14;98693.00;5049673;28;20646;-75
2023/03/03 09:58:51;;;;;;;42.95;29.55;;;;;;;3.37;69.06;98704.25;5063232;28;20044;-75
2023/03/03 10:01:25;;;;;;;35.53;27.83;;;;;;;3.47;69.78;98705.63;5036150;28;20043;-76
2023/03/03 10:04:04;;;;;;;33.03;26.60;;;;;;;3.55;68.61;98707.31;5066920;28;20506;-75
2023/03/03 10:06:42;;;;;;;34.95;25.90;;;;;;;4.03;67.44;98705.78;5049456;28;20607;-77
2023/03/03 10:09:27;;;;;;;30.50;23.25;;;;;;;3.92;67.23;98708.97;5042854;28;20040;-78
2023/03/03 10:12:15;;;;;;;29.73;23.52;;;;;;;4.03;66.52;98706.63;5063823;28;20035;-78
2023/03/03 10:14:56;;;;;;;29.05;23.90;;;;;;;4.12;66.12;98705.47;5058764;28;20033;-79
2023/03/03 10:17:54;;;;;;;33.47;23.95;;;;;;;4.00;65.18;98696.34;5073025;28;20438;-78
2023/03/03 10:20:31;;;;;;;27.30;22.17;;;;;;;4.31;65.43;98697.84;5060032;28;20514;-78
2023/03/03 10:23:37;;;;;;;30.92;24.08;;;;;;;4.22;66.61;98699.00;5096826;28;20545;-78
2023/03/03 10:26:15;;;;;;;31.10;24.15;;;;;;;4.40;66.13;98702.03;5086685;28;20150;-78
2023/03/03 10:29:04;;;;;;;27.48;21.98;;;;;;;4.39;64.72;98695.84;5046338;28;20036;-78
2023/03/03 10:31:42;;;;;;;29.48;22.38;;;;;;;4.48;64.08;98694.69;5036415;28;20029;-78
2023/03/03 10:34:23;;;;;;;30.52;20.77;;;;;;;4.47;63.44;98698.41;5069211;28;20060;-78
2023/03/03 10:36:55;;;;;;;34.15;22.45;;;;;;;4.80;64.42;98703.97;5082374;28;20040;-78
2023/03/03 10:39:26;;;;;;;25.77;19.73;;;;;;;4.69;61.70;98702.66;5035139;28;20400;-78
2023/03/03 10:41:52;;;;;;;24.90;20.25;;;;;;;4.84;62.14;98700.72;5064028;28;20047;-79
2023/03/03 10:44:45;;;;;;;28.48;20.33;;;;;;;5.15;61.74;98702.13;5085427;28;20025;-79
2023/03/03 10:47:26;;;;;;;25.30;19.63;;;;;;;4.91;60.76;98711.44;5059375;28;20033;-78
2023/03/03 10:50:13;;;;;;;31.38;20.00;;;;;;;4.91;61.40;98706.09;5052316;28;20527;-78
2023/03/03 10:52:47;;;;;;;31.08;19.70;;;;;;;4.93;61.43;98697.88;5042168;28;20062;-78
2023/03/03 10:55:35;;;;;;;24.42;19.02;;;;;;;4.96;60.91;98703.66;5052695;28;20500;-78
2023/03/03 10:58:16;;;;;;;26.40;19.27;;;;;;;4.99;60.58;98703.28;5051974;28;20045;-78
2023/03/03 11:01:06;;;;;;;24.98;19.52;;;;;;;5.14;60.53;98689.78;5050307;28;20037;-78
2023/03/03 11:03:51;;;;;;;26.45;19.13;;;;;;;5.12;60.46;98681.97;5052142;28;20079;-78
2023/03/03 11:06:58;;;;;;;28.77;19.60;;;;;;;5.25;59.77;98692.72;5051343;28;20071;-78
2023/03/03 11:09:30;;;;;;;25.25;19.02;;;;;;;5.39;60.48;98683.75;5014997;28;20051;-78
2023/03/03 11:12:07;;;;;;;23.20;18.08;;;;;;;5.43;59.53;98682.34;5038189;28;20048;-78
2023/03/03 11:15:08;;;;;;;23.90;17.92;;;;;;;5.39;60.01;98677.59;5059373;28;20033;-78
2023/03/03 11:18:20;;;;;;;25.63;18.63;;;;;;;5.22;59.77;98671.78;5058656;28;20076;-78
2023/03/03 11:21:13;;;;;;;26.55;18.55;;;;;;;5.34;59.57;98675.53;5030807;28;20052;-78
2023/03/03 11:23:45;;;;;;;26.00;17.92;;;;;;;5.65;59.59;98677.66;5053734;28;20452;-79
2023/03/03 11:26:33;;;;;;;23.90;17.65;;;;;;;5.83;59.08;98674.44;5062695;28;20036;-78
2023/03/03 11:29:14;;;;;;;23.88;17.77;;;;;;;5.90;59.37;98669.97;5059174;28;20064;-79
2023/03/03 11:31:46;;;;;;;26.80;17.70;;;;;;;5.95;59.10;98675.53;5043473;28;20037;-78
2023/03/03 11:34:23;;;;;;;24.15;18.50;;;;;;;5.66;59.07;98667.81;5069672;28;20432;-78
2023/03/03 11:36:54;;;;;;;25.95;18.40;;;;;;;5.75;59.24;98671.94;5065390;28;20044;-78
2023/03/03 11:39:22;;;;;;;22.80;17.63;;;;;;;5.75;58.59;98661.25;5052157;28;20113;-77